sensor_id;sensor_type;location;lat;lon;timestamp;P1;durP1;ratioP1;P2;durP2;ratioP2
58647;SDS011;45992;45.920;20.074;2022-09-09T00:09:26;12.27;;;7.63;;
58647;SDS011;45992;45.920;20.074;2022-09-09T00:11:54;8.80;;;6.25;;
58647;SDS011;45992;45.920;20.074;2022-09-09T00:14:25;10.45;;;7.18;;
58647;SDS011;45992;45.920;20.074;2022-09-09T00:16:57;10.23;;;6.85;;
58647;SDS011;45992;45.920;20.074;2022-09-09T00:24:43;9.77;;;6.65;;
58647;SDS011;45992;45.920;20.074;2022-09-09T00:29:56;11.43;;;7.05;;
58647;SDS011;45992;45.920;20.074;2022-09-09T00:32:24;12.10;;;6.78;;
58647;SDS011;45992;45.920;20.074;2022-09-09T00:37:25;10.45;;;7.00;;
58647;SDS011;45992;45.920;20.074;2022-09-09T00:39:53;12.43;;;6.95;;
58647;SDS011;45992;45.920;20.074;2022-09-09T00:55:17;9.30;;;6.45;;
58647;SDS011;45992;45.920;20.074;2022-09-09T00:57:45;9.73;;;7.13;;
58647;SDS011;45992;45.920;20.074;2022-09-09T01:05:13;9.68;;;6.93;;
58647;SDS011;45992;45.920;20.074;2022-09-09T01:07:42;10.18;;;7.22;;
58647;SDS011;45992;45.920;20.074;2022-09-09T01:10:13;11.10;;;7.40;;
58647;SDS011;45992;45.920;20.074;2022-09-09T01:12:43;10.15;;;7.22;;
58647;SDS011;45992;45.920;20.074;2022-09-09T01:15:22;11.00;;;6.85;;
58647;SDS011;45992;45.920;20.074;2022-09-09T01:18:08;12.13;;;7.72;;
58647;SDS011;45992;45.920;20.074;2022-09-09T01:26:04;10.25;;;7.38;;
58647;SDS011;45992;45.920;20.074;2022-09-09T01:28:33;10.35;;;7.85;;
58647;SDS011;45992;45.920;20.074;2022-09-09T01:31:02;12.15;;;7.93;;
58647;SDS011;45992;45.920;20.074;2022-09-09T01:33:28;10.88;;;7.63;;
58647;SDS011;45992;45.920;20.074;2022-09-09T01:38:36;11.38;;;7.63;;
58647;SDS011;45992;45.920;20.074;2022-09-09T01:41:02;12.40;;;8.55;;
58647;SDS011;45992;45.920;20.074;2022-09-09T01:43:29;11.15;;;8.68;;
58647;SDS011;45992;45.920;20.074;2022-09-09T01:45:56;13.40;;;8.35;;
58647;SDS011;45992;45.920;20.074;2022-09-09T01:48:24;12.05;;;8.15;;
58647;SDS011;45992;45.920;20.074;2022-09-09T01:50:51;12.48;;;8.38;;
58647;SDS011;45992;45.920;20.074;2022-09-09T01:53:17;10.75;;;8.40;;
58647;SDS011;45992;45.920;20.074;2022-09-09T01:58:44;9.98;;;7.88;;
58647;SDS011;45992;45.920;20.074;2022-09-09T02:03:57;12.45;;;8.07;;
58647;SDS011;45992;45.920;20.074;2022-09-09T02:06:34;13.10;;;8.65;;
58647;SDS011;45992;45.920;20.074;2022-09-09T02:09:01;15.02;;;8.50;;
58647;SDS011;45992;45.920;20.074;2022-09-09T02:11:29;12.27;;;8.40;;
58647;SDS011;45992;45.920;20.074;2022-09-09T02:14:00;13.82;;;9.00;;
58647;SDS011;45992;45.920;20.074;2022-09-09T02:16:34;14.27;;;8.75;;
58647;SDS011;45992;45.920;20.074;2022-09-09T02:21:30;15.02;;;9.40;;
58647;SDS011;45992;45.920;20.074;2022-09-09T02:23:57;12.05;;;8.95;;
58647;SDS011;45992;45.920;20.074;2022-09-09T02:26:25;13.15;;;9.43;;
58647;SDS011;45992;45.920;20.074;2022-09-09T02:28:52;13.75;;;8.85;;
58647;SDS011;45992;45.920;20.074;2022-09-09T02:31:22;13.32;;;9.10;;
58647;SDS011;45992;45.920;20.074;2022-09-09T02:33:52;13.15;;;8.38;;
58647;SDS011;45992;45.920;20.074;2022-09-09T02:36:19;12.35;;;8.02;;
58647;SDS011;45992;45.920;20.074;2022-09-09T02:38:50;12.27;;;8.88;;
58647;SDS011;45992;45.920;20.074;2022-09-09T02:41:19;11.20;;;8.02;;
58647;SDS011;45992;45.920;20.074;2022-09-09T02:43:46;13.27;;;9.05;;
58647;SDS011;45992;45.920;20.074;2022-09-09T02:54:17;11.68;;;8.45;;
58647;SDS011;45992;45.920;20.074;2022-09-09T02:56:49;12.35;;;8.50;;
58647;SDS011;45992;45.920;20.074;2022-09-09T02:59:19;13.18;;;8.93;;
58647;SDS011;45992;45.920;20.074;2022-09-09T03:01:45;11.95;;;8.88;;
58647;SDS011;45992;45.920;20.074;2022-09-09T03:04:12;13.90;;;9.32;;
58647;SDS011;45992;45.920;20.074;2022-09-09T03:06:38;13.05;;;9.30;;
58647;SDS011;45992;45.920;20.074;2022-09-09T03:09:04;12.13;;;9.35;;
58647;SDS011;45992;45.920;20.074;2022-09-09T03:11:30;16.75;;;8.30;;
58647;SDS011;45992;45.920;20.074;2022-09-09T03:13:56;13.15;;;8.68;;
58647;SDS011;45992;45.920;20.074;2022-09-09T03:16:22;13.20;;;8.68;;
58647;SDS011;45992;45.920;20.074;2022-09-09T03:18:48;12.05;;;8.80;;
58647;SDS011;45992;45.920;20.074;2022-09-09T03:21:15;11.70;;;9.45;;
58647;SDS011;45992;45.920;20.074;2022-09-09T03:26:07;13.52;;;9.25;;
58647;SDS011;45992;45.920;20.074;2022-09-09T03:28:33;12.93;;;9.13;;
58647;SDS011;45992;45.920;20.074;2022-09-09T03:31:00;11.13;;;8.70;;
58647;SDS011;45992;45.920;20.074;2022-09-09T03:33:27;13.18;;;9.30;;
58647;SDS011;45992;45.920;20.074;2022-09-09T03:35:54;15.85;;;9.13;;
58647;SDS011;45992;45.920;20.074;2022-09-09T03:38:21;11.65;;;8.65;;
58647;SDS011;45992;45.920;20.074;2022-09-09T03:40:51;11.10;;;8.38;;
58647;SDS011;45992;45.920;20.074;2022-09-09T03:43:22;12.60;;;8.65;;
58647;SDS011;45992;45.920;20.074;2022-09-09T03:48:14;11.75;;;9.13;;
58647;SDS011;45992;45.920;20.074;2022-09-09T03:53:06;12.05;;;8.88;;
58647;SDS011;45992;45.920;20.074;2022-09-09T03:55:32;20.65;;;9.25;;
58647;SDS011;45992;45.920;20.074;2022-09-09T03:57:58;12.98;;;9.20;;
58647;SDS011;45992;45.920;20.074;2022-09-09T04:02:51;11.88;;;9.05;;
58647;SDS011;45992;45.920;20.074;2022-09-09T04:05:19;14.68;;;9.50;;
58647;SDS011;45992;45.920;20.074;2022-09-09T04:07:45;11.90;;;8.90;;
58647;SDS011;45992;45.920;20.074;2022-09-09T04:10:11;13.57;;;9.90;;
58647;SDS011;45992;45.920;20.074;2022-09-09T04:12:38;13.20;;;10.02;;
58647;SDS011;45992;45.920;20.074;2022-09-09T04:15:04;14.60;;;10.48;;
58647;SDS011;45992;45.920;20.074;2022-09-09T04:17:30;16.08;;;10.48;;
58647;SDS011;45992;45.920;20.074;2022-09-09T04:22:22;13.30;;;9.95;;
58647;SDS011;45992;45.920;20.074;2022-09-09T04:24:48;15.57;;;11.25;;
58647;SDS011;45992;45.920;20.074;2022-09-09T04:27:14;17.85;;;11.75;;
58647;SDS011;45992;45.920;20.074;2022-09-09T04:29:40;18.42;;;11.30;;
58647;SDS011;45992;45.920;20.074;2022-09-09T04:32:06;13.63;;;10.30;;
58647;SDS011;45992;45.920;20.074;2022-09-09T04:34:32;15.65;;;11.45;;
58647;SDS011;45992;45.920;20.074;2022-09-09T04:36:58;13.45;;;9.95;;
58647;SDS011;45992;45.920;20.074;2022-09-09T04:41:51;12.80;;;10.18;;
58647;SDS011;45992;45.920;20.074;2022-09-09T04:44:18;14.05;;;9.10;;
58647;SDS011;45992;45.920;20.074;2022-09-09T04:46:44;11.20;;;9.68;;
58647;SDS011;45992;45.920;20.074;2022-09-09T04:49:10;13.40;;;9.02;;
58647;SDS011;45992;45.920;20.074;2022-09-09T04:51:36;12.48;;;9.45;;
58647;SDS011;45992;45.920;20.074;2022-09-09T04:54:02;14.95;;;9.63;;
58647;SDS011;45992;45.920;20.074;2022-09-09T04:56:28;17.15;;;10.35;;
58647;SDS011;45992;45.920;20.074;2022-09-09T04:58:54;15.13;;;10.32;;
58647;SDS011;45992;45.920;20.074;2022-09-09T05:03:49;15.52;;;10.02;;
58647;SDS011;45992;45.920;20.074;2022-09-09T05:06:17;12.13;;;9.60;;
58647;SDS011;45992;45.920;20.074;2022-09-09T05:08:44;14.45;;;10.30;;
58647;SDS011;45992;45.920;20.074;2022-09-09T05:11:13;16.02;;;10.90;;
58647;SDS011;45992;45.920;20.074;2022-09-09T05:13:40;21.40;;;13.98;;
58647;SDS011;45992;45.920;20.074;2022-09-09T05:16:06;15.40;;;11.02;;
58647;SDS011;45992;45.920;20.074;2022-09-09T05:18:33;16.70;;;11.23;;
58647;SDS011;45992;45.920;20.074;2022-09-09T05:20:59;12.75;;;9.93;;
58647;SDS011;45992;45.920;20.074;2022-09-09T05:23:25;16.17;;;9.48;;
58647;SDS011;45992;45.920;20.074;2022-09-09T05:25:55;18.17;;;9.82;;
58647;SDS011;45992;45.920;20.074;2022-09-09T05:28:22;11.23;;;9.00;;
58647;SDS011;45992;45.920;20.074;2022-09-09T05:30:58;12.93;;;9.18;;
58647;SDS011;45992;45.920;20.074;2022-09-09T05:33:25;14.45;;;9.48;;
58647;SDS011;45992;45.920;20.074;2022-09-09T05:38:17;12.32;;;9.35;;
58647;SDS011;45992;45.920;20.074;2022-09-09T05:40:47;12.40;;;9.50;;
58647;SDS011;45992;45.920;20.074;2022-09-09T05:43:14;14.68;;;10.27;;
58647;SDS011;45992;45.920;20.074;2022-09-09T05:45:40;14.30;;;9.75;;
58647;SDS011;45992;45.920;20.074;2022-09-09T05:48:06;12.18;;;10.20;;
58647;SDS011;45992;45.920;20.074;2022-09-09T05:50:32;12.57;;;9.63;;
58647;SDS011;45992;45.920;20.074;2022-09-09T05:52:58;11.85;;;8.82;;
58647;SDS011;45992;45.920;20.074;2022-09-09T05:55:24;10.40;;;8.45;;
58647;SDS011;45992;45.920;20.074;2022-09-09T05:57:50;13.13;;;7.95;;
58647;SDS011;45992;45.920;20.074;2022-09-09T06:00:17;12.80;;;7.90;;
58647;SDS011;45992;45.920;20.074;2022-09-09T06:02:44;10.82;;;7.82;;
58647;SDS011;45992;45.920;20.074;2022-09-09T06:05:16;9.63;;;7.55;;
58647;SDS011;45992;45.920;20.074;2022-09-09T06:07:42;9.88;;;8.45;;
58647;SDS011;45992;45.920;20.074;2022-09-09T06:10:09;11.57;;;8.80;;
58647;SDS011;45992;45.920;20.074;2022-09-09T06:12:38;12.02;;;8.82;;
58647;SDS011;45992;45.920;20.074;2022-09-09T06:15:04;11.90;;;8.85;;
58647;SDS011;45992;45.920;20.074;2022-09-09T06:17:30;10.00;;;8.32;;
58647;SDS011;45992;45.920;20.074;2022-09-09T06:19:56;11.50;;;7.40;;
58647;SDS011;45992;45.920;20.074;2022-09-09T06:24:49;8.65;;;6.07;;
58647;SDS011;45992;45.920;20.074;2022-09-09T06:27:16;8.23;;;5.85;;
58647;SDS011;45992;45.920;20.074;2022-09-09T06:29:42;9.70;;;6.40;;
58647;SDS011;45992;45.920;20.074;2022-09-09T06:32:08;8.55;;;5.20;;
58647;SDS011;45992;45.920;20.074;2022-09-09T06:34:34;11.05;;;5.35;;
58647;SDS011;45992;45.920;20.074;2022-09-09T06:37:01;9.52;;;5.40;;
58647;SDS011;45992;45.920;20.074;2022-09-09T06:39:27;9.88;;;6.22;;
58647;SDS011;45992;45.920;20.074;2022-09-09T06:44:20;8.20;;;5.10;;
58647;SDS011;45992;45.920;20.074;2022-09-09T06:46:47;8.32;;;5.68;;
58647;SDS011;45992;45.920;20.074;2022-09-09T06:49:13;7.57;;;5.45;;
58647;SDS011;45992;45.920;20.074;2022-09-09T06:51:39;7.97;;;6.47;;
58647;SDS011;45992;45.920;20.074;2022-09-09T06:54:08;7.88;;;5.75;;
58647;SDS011;45992;45.920;20.074;2022-09-09T06:56:38;7.32;;;5.32;;
58647;SDS011;45992;45.920;20.074;2022-09-09T06:59:07;7.68;;;4.88;;
58647;SDS011;45992;45.920;20.074;2022-09-09T07:01:41;7.75;;;4.35;;
58647;SDS011;45992;45.920;20.074;2022-09-09T07:04:11;6.82;;;4.45;;
58647;SDS011;45992;45.920;20.074;2022-09-09T07:06:39;7.20;;;3.63;;
58647;SDS011;45992;45.920;20.074;2022-09-09T07:09:09;8.57;;;4.35;;
58647;SDS011;45992;45.920;20.074;2022-09-09T07:11:39;8.45;;;4.10;;
58647;SDS011;45992;45.920;20.074;2022-09-09T07:14:06;6.93;;;3.80;;
58647;SDS011;45992;45.920;20.074;2022-09-09T07:16:33;7.18;;;3.75;;
58647;SDS011;45992;45.920;20.074;2022-09-09T07:19:02;7.15;;;3.97;;
58647;SDS011;45992;45.920;20.074;2022-09-09T07:21:28;6.35;;;3.60;;
58647;SDS011;45992;45.920;20.074;2022-09-09T07:23:55;8.85;;;3.95;;
58647;SDS011;45992;45.920;20.074;2022-09-09T07:26:22;6.07;;;3.78;;
58647;SDS011;45992;45.920;20.074;2022-09-09T07:28:49;6.38;;;3.47;;
58647;SDS011;45992;45.920;20.074;2022-09-09T07:31:19;9.38;;;3.63;;
58647;SDS011;45992;45.920;20.074;2022-09-09T07:33:45;6.28;;;3.55;;
58647;SDS011;45992;45.920;20.074;2022-09-09T07:36:13;7.95;;;3.90;;
58647;SDS011;45992;45.920;20.074;2022-09-09T07:38:40;6.82;;;3.78;;
58647;SDS011;45992;45.920;20.074;2022-09-09T07:41:08;6.15;;;3.40;;
58647;SDS011;45992;45.920;20.074;2022-09-09T07:43:39;6.45;;;3.20;;
58647;SDS011;45992;45.920;20.074;2022-09-09T07:46:05;6.70;;;3.80;;
58647;SDS011;45992;45.920;20.074;2022-09-09T07:48:31;6.35;;;4.07;;
58647;SDS011;45992;45.920;20.074;2022-09-09T07:51:09;5.63;;;3.85;;
58647;SDS011;45992;45.920;20.074;2022-09-09T07:53:36;6.30;;;3.97;;
58647;SDS011;45992;45.920;20.074;2022-09-09T07:56:04;7.97;;;3.72;;
58647;SDS011;45992;45.920;20.074;2022-09-09T07:58:30;8.32;;;3.75;;
58647;SDS011;45992;45.920;20.074;2022-09-09T08:00:56;8.52;;;3.90;;
58647;SDS011;45992;45.920;20.074;2022-09-09T08:03:22;11.40;;;3.63;;
58647;SDS011;45992;45.920;20.074;2022-09-09T08:05:48;7.05;;;3.38;;
58647;SDS011;45992;45.920;20.074;2022-09-09T08:08:14;6.65;;;3.08;;
58647;SDS011;45992;45.920;20.074;2022-09-09T08:10:41;6.45;;;3.35;;
58647;SDS011;45992;45.920;20.074;2022-09-09T08:13:08;6.00;;;3.22;;
58647;SDS011;45992;45.920;20.074;2022-09-09T08:15:34;6.65;;;4.30;;
58647;SDS011;45992;45.920;20.074;2022-09-09T08:18:00;7.32;;;3.53;;
58647;SDS011;45992;45.920;20.074;2022-09-09T08:20:28;7.25;;;3.83;;
58647;SDS011;45992;45.920;20.074;2022-09-09T08:22:55;9.13;;;3.95;;
58647;SDS011;45992;45.920;20.074;2022-09-09T08:25:21;7.78;;;4.30;;
58647;SDS011;45992;45.920;20.074;2022-09-09T08:27:47;6.40;;;3.58;;
58647;SDS011;45992;45.920;20.074;2022-09-09T08:30:13;8.38;;;3.83;;
58647;SDS011;45992;45.920;20.074;2022-09-09T08:32:39;7.97;;;3.80;;
58647;SDS011;45992;45.920;20.074;2022-09-09T08:35:06;7.55;;;4.32;;
58647;SDS011;45992;45.920;20.074;2022-09-09T08:37:32;8.85;;;4.50;;
58647;SDS011;45992;45.920;20.074;2022-09-09T08:39:58;8.13;;;4.43;;
58647;SDS011;45992;45.920;20.074;2022-09-09T08:42:32;8.77;;;4.03;;
58647;SDS011;45992;45.920;20.074;2022-09-09T08:45:23;7.53;;;4.60;;
58647;SDS011;45992;45.920;20.074;2022-09-09T08:55:15;8.00;;;4.60;;
58647;SDS011;45992;45.920;20.074;2022-09-09T08:57:46;10.23;;;5.07;;
58647;SDS011;45992;45.920;20.074;2022-09-09T09:00:13;9.63;;;5.07;;
58647;SDS011;45992;45.920;20.074;2022-09-09T09:02:46;7.63;;;4.30;;
58647;SDS011;45992;45.920;20.074;2022-09-09T09:13:13;8.95;;;4.47;;
58647;SDS011;45992;45.920;20.074;2022-09-09T09:15:39;8.50;;;4.90;;
58647;SDS011;45992;45.920;20.074;2022-09-09T09:18:07;8.30;;;4.10;;
58647;SDS011;45992;45.920;20.074;2022-09-09T09:23:23;8.10;;;3.83;;
58647;SDS011;45992;45.920;20.074;2022-09-09T09:25:50;7.32;;;4.22;;
58647;SDS011;45992;45.920;20.074;2022-09-09T09:28:18;8.10;;;4.35;;
58647;SDS011;45992;45.920;20.074;2022-09-09T09:30:48;6.50;;;3.72;;
58647;SDS011;45992;45.920;20.074;2022-09-09T09:35:45;7.05;;;3.63;;
58647;SDS011;45992;45.920;20.074;2022-09-09T09:40:37;10.07;;;4.30;;
58647;SDS011;45992;45.920;20.074;2022-09-09T09:43:17;7.45;;;4.22;;
58647;SDS011;45992;45.920;20.074;2022-09-09T09:45:45;7.55;;;4.25;;
58647;SDS011;45992;45.920;20.074;2022-09-09T09:51:37;8.90;;;4.13;;
58647;SDS011;45992;45.920;20.074;2022-09-09T09:53:32;7.47;;;3.72;;
58647;SDS011;45992;45.920;20.074;2022-09-09T09:56:01;8.63;;;4.30;;
58647;SDS011;45992;45.920;20.074;2022-09-09T09:58:27;8.13;;;4.15;;
58647;SDS011;45992;45.920;20.074;2022-09-09T10:00:56;8.63;;;4.70;;
58647;SDS011;45992;45.920;20.074;2022-09-09T10:03:32;8.07;;;3.97;;
58647;SDS011;45992;45.920;20.074;2022-09-09T10:06:02;9.10;;;3.92;;
58647;SDS011;45992;45.920;20.074;2022-09-09T10:08:28;16.35;;;5.80;;
58647;SDS011;45992;45.920;20.074;2022-09-09T10:11:57;17.95;;;5.90;;
58647;SDS011;45992;45.920;20.074;2022-09-09T10:14:00;13.35;;;5.15;;
58647;SDS011;45992;45.920;20.074;2022-09-09T10:19:00;6.55;;;3.90;;
58647;SDS011;45992;45.920;20.074;2022-09-09T10:24:22;6.78;;;3.70;;
58647;SDS011;45992;45.920;20.074;2022-09-09T10:26:54;8.15;;;3.78;;
58647;SDS011;45992;45.920;20.074;2022-09-09T10:37:31;6.55;;;3.35;;
58647;SDS011;45992;45.920;20.074;2022-09-09T10:39:56;7.35;;;3.30;;
58647;SDS011;45992;45.920;20.074;2022-09-09T10:42:27;5.88;;;3.13;;
58647;SDS011;45992;45.920;20.074;2022-09-09T10:45:13;5.93;;;2.83;;
58647;SDS011;45992;45.920;20.074;2022-09-09T10:47:44;5.50;;;2.93;;
58647;SDS011;45992;45.920;20.074;2022-09-09T10:52:46;5.65;;;2.50;;
58647;SDS011;45992;45.920;20.074;2022-09-09T10:55:16;5.72;;;2.25;;
58647;SDS011;45992;45.920;20.074;2022-09-09T10:57:47;7.07;;;2.33;;
58647;SDS011;45992;45.920;20.074;2022-09-09T11:02:43;6.10;;;2.22;;
58647;SDS011;45992;45.920;20.074;2022-09-09T11:05:28;7.50;;;2.10;;
58647;SDS011;45992;45.920;20.074;2022-09-09T11:12:51;6.30;;;2.90;;
58647;SDS011;45992;45.920;20.074;2022-09-09T11:17:46;5.60;;;2.60;;
58647;SDS011;45992;45.920;20.074;2022-09-09T11:20:15;5.72;;;2.60;;
58647;SDS011;45992;45.920;20.074;2022-09-09T11:25:14;6.18;;;1.98;;
58647;SDS011;45992;45.920;20.074;2022-09-09T11:28:04;6.13;;;2.53;;
58647;SDS011;45992;45.920;20.074;2022-09-09T11:40:55;5.53;;;2.28;;
58647;SDS011;45992;45.920;20.074;2022-09-09T11:43:28;9.68;;;2.50;;
58647;SDS011;45992;45.920;20.074;2022-09-09T11:45:57;6.68;;;2.67;;
58647;SDS011;45992;45.920;20.074;2022-09-09T11:51:00;6.55;;;2.50;;
58647;SDS011;45992;45.920;20.074;2022-09-09T11:53:28;6.70;;;2.40;;
58647;SDS011;45992;45.920;20.074;2022-09-09T11:58:27;7.32;;;2.30;;
58647;SDS011;45992;45.920;20.074;2022-09-09T12:00:57;5.28;;;2.03;;
58647;SDS011;45992;45.920;20.074;2022-09-09T12:06:19;7.35;;;2.50;;
58647;SDS011;45992;45.920;20.074;2022-09-09T12:08:48;5.97;;;2.30;;
58647;SDS011;45992;45.920;20.074;2022-09-09T12:11:26;5.60;;;2.17;;
58647;SDS011;45992;45.920;20.074;2022-09-09T12:13:53;6.00;;;2.08;;
58647;SDS011;45992;45.920;20.074;2022-09-09T12:19:16;4.53;;;1.77;;
58647;SDS011;45992;45.920;20.074;2022-09-09T12:24:24;5.05;;;2.00;;
58647;SDS011;45992;45.920;20.074;2022-09-09T12:27:05;4.88;;;1.55;;
58647;SDS011;45992;45.920;20.074;2022-09-09T12:29:41;5.40;;;1.85;;
58647;SDS011;45992;45.920;20.074;2022-09-09T12:32:10;4.88;;;1.92;;
58647;SDS011;45992;45.920;20.074;2022-09-09T12:34:53;5.78;;;2.20;;
58647;SDS011;45992;45.920;20.074;2022-09-09T12:37:35;5.68;;;2.35;;
58647;SDS011;45992;45.920;20.074;2022-09-09T12:40:14;5.18;;;1.90;;
58647;SDS011;45992;45.920;20.074;2022-09-09T12:42:44;5.10;;;1.70;;
58647;SDS011;45992;45.920;20.074;2022-09-09T12:47:40;5.47;;;1.98;;
58647;SDS011;45992;45.920;20.074;2022-09-09T12:50:17;6.05;;;1.73;;
58647;SDS011;45992;45.920;20.074;2022-09-09T12:52:44;5.65;;;2.05;;
58647;SDS011;45992;45.920;20.074;2022-09-09T12:55:15;8.35;;;2.20;;
58647;SDS011;45992;45.920;20.074;2022-09-09T12:57:41;8.30;;;2.22;;
58647;SDS011;45992;45.920;20.074;2022-09-09T13:00:15;7.10;;;2.10;;
58647;SDS011;45992;45.920;20.074;2022-09-09T13:02:46;6.55;;;1.67;;
58647;SDS011;45992;45.920;20.074;2022-09-09T13:05:17;6.15;;;2.00;;
58647;SDS011;45992;45.920;20.074;2022-09-09T13:07:44;7.88;;;1.95;;
58647;SDS011;45992;45.920;20.074;2022-09-09T13:10:11;6.82;;;2.55;;
58647;SDS011;45992;45.920;20.074;2022-09-09T13:12:37;7.97;;;2.45;;
58647;SDS011;45992;45.920;20.074;2022-09-09T13:15:03;6.28;;;2.40;;
58647;SDS011;45992;45.920;20.074;2022-09-09T13:17:30;6.40;;;2.03;;
58647;SDS011;45992;45.920;20.074;2022-09-09T13:19:56;8.57;;;2.83;;
58647;SDS011;45992;45.920;20.074;2022-09-09T13:22:30;5.35;;;1.92;;
58647;SDS011;45992;45.920;20.074;2022-09-09T13:27:40;5.15;;;1.70;;
58647;SDS011;45992;45.920;20.074;2022-09-09T13:33:02;6.25;;;1.80;;
58647;SDS011;45992;45.920;20.074;2022-09-09T13:35:28;5.88;;;1.80;;
58647;SDS011;45992;45.920;20.074;2022-09-09T13:37:55;5.45;;;2.08;;
58647;SDS011;45992;45.920;20.074;2022-09-09T13:40:22;6.10;;;1.80;;
58647;SDS011;45992;45.920;20.074;2022-09-09T13:42:52;4.82;;;1.60;;
58647;SDS011;45992;45.920;20.074;2022-09-09T13:45:21;5.40;;;1.85;;
58647;SDS011;45992;45.920;20.074;2022-09-09T13:47:48;7.55;;;1.88;;
58647;SDS011;45992;45.920;20.074;2022-09-09T13:52:50;5.22;;;1.70;;
58647;SDS011;45992;45.920;20.074;2022-09-09T13:55:16;5.72;;;1.95;;
58647;SDS011;45992;45.920;20.074;2022-09-09T13:57:52;5.70;;;2.00;;
58647;SDS011;45992;45.920;20.074;2022-09-09T14:00:18;6.10;;;2.00;;
58647;SDS011;45992;45.920;20.074;2022-09-09T14:02:45;4.65;;;1.60;;
58647;SDS011;45992;45.920;20.074;2022-09-09T14:05:12;8.00;;;1.88;;
58647;SDS011;45992;45.920;20.074;2022-09-09T14:07:38;4.35;;;1.73;;
58647;SDS011;45992;45.920;20.074;2022-09-09T14:10:05;7.28;;;2.03;;
58647;SDS011;45992;45.920;20.074;2022-09-09T14:12:32;6.20;;;1.88;;
58647;SDS011;45992;45.920;20.074;2022-09-09T14:17:24;10.30;;;2.10;;
58647;SDS011;45992;45.920;20.074;2022-09-09T14:19:54;4.65;;;1.80;;
58647;SDS011;45992;45.920;20.074;2022-09-09T14:22:21;4.57;;;1.85;;
58647;SDS011;45992;45.920;20.074;2022-09-09T14:24:47;6.20;;;1.83;;
58647;SDS011;45992;45.920;20.074;2022-09-09T14:27:14;4.97;;;1.90;;
58647;SDS011;45992;45.920;20.074;2022-09-09T14:29:40;6.35;;;1.90;;
58647;SDS011;45992;45.920;20.074;2022-09-09T14:32:08;4.88;;;1.60;;
58647;SDS011;45992;45.920;20.074;2022-09-09T14:37:00;6.82;;;1.70;;
58647;SDS011;45992;45.920;20.074;2022-09-09T14:41:52;5.85;;;1.70;;
58647;SDS011;45992;45.920;20.074;2022-09-09T14:44:18;4.63;;;1.80;;
58647;SDS011;45992;45.920;20.074;2022-09-09T14:49:10;5.57;;;1.77;;
58647;SDS011;45992;45.920;20.074;2022-09-09T14:51:37;5.75;;;1.73;;
58647;SDS011;45992;45.920;20.074;2022-09-09T14:54:04;7.10;;;1.70;;
58647;SDS011;45992;45.920;20.074;2022-09-09T14:56:31;5.10;;;1.90;;
58647;SDS011;45992;45.920;20.074;2022-09-09T14:59:00;4.88;;;1.83;;
58647;SDS011;45992;45.920;20.074;2022-09-09T15:03:54;4.40;;;1.63;;
58647;SDS011;45992;45.920;20.074;2022-09-09T15:06:20;6.88;;;1.73;;
58647;SDS011;45992;45.920;20.074;2022-09-09T15:08:47;9.88;;;1.67;;
58647;SDS011;45992;45.920;20.074;2022-09-09T15:11:13;7.32;;;1.77;;
58647;SDS011;45992;45.920;20.074;2022-09-09T15:13:40;5.57;;;2.10;;
58647;SDS011;45992;45.920;20.074;2022-09-09T15:16:08;5.35;;;2.00;;
58647;SDS011;45992;45.920;20.074;2022-09-09T15:18:35;8.02;;;2.10;;
58647;SDS011;45992;45.920;20.074;2022-09-09T15:23:28;4.93;;;2.00;;
58647;SDS011;45992;45.920;20.074;2022-09-09T15:28:20;5.33;;;1.80;;
58647;SDS011;45992;45.920;20.074;2022-09-09T15:30:47;6.72;;;1.95;;
58647;SDS011;45992;45.920;20.074;2022-09-09T15:33:13;4.90;;;1.88;;
58647;SDS011;45992;45.920;20.074;2022-09-09T15:35:39;5.25;;;1.77;;
58647;SDS011;45992;45.920;20.074;2022-09-09T15:38:05;4.88;;;1.60;;
58647;SDS011;45992;45.920;20.074;2022-09-09T15:40:31;5.07;;;2.00;;
58647;SDS011;45992;45.920;20.074;2022-09-09T15:42:58;8.48;;;2.15;;
58647;SDS011;45992;45.920;20.074;2022-09-09T15:45:24;5.43;;;1.80;;
58647;SDS011;45992;45.920;20.074;2022-09-09T15:47:50;6.97;;;1.90;;
58647;SDS011;45992;45.920;20.074;2022-09-09T15:50:16;7.88;;;2.00;;
58647;SDS011;45992;45.920;20.074;2022-09-09T15:52:42;5.70;;;1.70;;
58647;SDS011;45992;45.920;20.074;2022-09-09T15:55:09;12.15;;;2.10;;
58647;SDS011;45992;45.920;20.074;2022-09-09T16:00:02;5.40;;;1.83;;
58647;SDS011;45992;45.920;20.074;2022-09-09T16:02:29;7.50;;;2.30;;
58647;SDS011;45992;45.920;20.074;2022-09-09T16:07:22;6.18;;;2.17;;
58647;SDS011;45992;45.920;20.074;2022-09-09T16:12:16;6.63;;;2.00;;
58647;SDS011;45992;45.920;20.074;2022-09-09T16:17:08;7.93;;;2.05;;
58647;SDS011;45992;45.920;20.074;2022-09-09T16:22:00;7.40;;;2.10;;
58647;SDS011;45992;45.920;20.074;2022-09-09T16:24:27;6.90;;;2.55;;
58647;SDS011;45992;45.920;20.074;2022-09-09T16:26:54;5.47;;;2.17;;
58647;SDS011;45992;45.920;20.074;2022-09-09T16:29:21;9.45;;;2.30;;
58647;SDS011;45992;45.920;20.074;2022-09-09T16:31:47;8.05;;;3.00;;
58647;SDS011;45992;45.920;20.074;2022-09-09T16:34:14;5.97;;;2.33;;
58647;SDS011;45992;45.920;20.074;2022-09-09T16:36:41;6.68;;;2.28;;
58647;SDS011;45992;45.920;20.074;2022-09-09T16:39:08;5.57;;;2.20;;
58647;SDS011;45992;45.920;20.074;2022-09-09T16:41:34;8.70;;;2.45;;
58647;SDS011;45992;45.920;20.074;2022-09-09T16:44:01;6.63;;;1.77;;
58647;SDS011;45992;45.920;20.074;2022-09-09T16:46:27;9.05;;;2.38;;
58647;SDS011;45992;45.920;20.074;2022-09-09T16:48:55;8.93;;;2.58;;
58647;SDS011;45992;45.920;20.074;2022-09-09T16:51:23;7.35;;;1.95;;
58647;SDS011;45992;45.920;20.074;2022-09-09T16:53:49;8.82;;;1.95;;
58647;SDS011;45992;45.920;20.074;2022-09-09T16:58:41;11.88;;;3.00;;
58647;SDS011;45992;45.920;20.074;2022-09-09T17:01:10;8.07;;;2.63;;
58647;SDS011;45992;45.920;20.074;2022-09-09T17:03:39;8.93;;;2.47;;
58647;SDS011;45992;45.920;20.074;2022-09-09T17:06:08;6.03;;;2.60;;
58647;SDS011;45992;45.920;20.074;2022-09-09T17:08:34;6.15;;;2.30;;
58647;SDS011;45992;45.920;20.074;2022-09-09T17:11:00;7.45;;;2.33;;
58647;SDS011;45992;45.920;20.074;2022-09-09T17:13:27;9.55;;;2.80;;
58647;SDS011;45992;45.920;20.074;2022-09-09T17:15:53;7.00;;;2.20;;
58647;SDS011;45992;45.920;20.074;2022-09-09T17:18:19;6.47;;;2.58;;
58647;SDS011;45992;45.920;20.074;2022-09-09T17:20:45;8.02;;;2.95;;
58647;SDS011;45992;45.920;20.074;2022-09-09T17:25:40;9.85;;;2.83;;
58647;SDS011;45992;45.920;20.074;2022-09-09T17:30:35;6.38;;;2.63;;
58647;SDS011;45992;45.920;20.074;2022-09-09T17:33:02;10.73;;;2.75;;
58647;SDS011;45992;45.920;20.074;2022-09-09T17:35:29;8.10;;;2.83;;
58647;SDS011;45992;45.920;20.074;2022-09-09T17:37:55;8.02;;;2.35;;
58647;SDS011;45992;45.920;20.074;2022-09-09T17:42:47;13.82;;;2.90;;
58647;SDS011;45992;45.920;20.074;2022-09-09T17:47:39;9.75;;;2.45;;
58647;SDS011;45992;45.920;20.074;2022-09-09T17:50:08;8.65;;;2.60;;
58647;SDS011;45992;45.920;20.074;2022-09-09T17:52:35;7.05;;;2.15;;
58647;SDS011;45992;45.920;20.074;2022-09-09T17:55:02;6.50;;;2.78;;
58647;SDS011;45992;45.920;20.074;2022-09-09T17:57:28;11.70;;;2.90;;
58647;SDS011;45992;45.920;20.074;2022-09-09T18:02:20;6.60;;;2.40;;
58647;SDS011;45992;45.920;20.074;2022-09-09T18:04:46;6.38;;;2.10;;
58647;SDS011;45992;45.920;20.074;2022-09-09T18:09:39;6.85;;;2.55;;
58647;SDS011;45992;45.920;20.074;2022-09-09T18:12:05;7.70;;;2.30;;
58647;SDS011;45992;45.920;20.074;2022-09-09T18:14:32;5.50;;;2.30;;